createdAt,value
2022-12-26T00:02:19.416Z,28.63
2022-12-26T00:05:28.614Z,30.55
2022-12-26T00:08:37.802Z,31.88
2022-12-26T00:11:48.531Z,35.83
2022-12-26T00:14:57.691Z,36.17
2022-12-26T00:18:06.983Z,27.63
2022-12-26T00:21:16.927Z,27.20
2022-12-26T00:24:26.175Z,36.63
2022-12-26T00:27:36.808Z,36.42
2022-12-26T00:30:45.998Z,37.90
2022-12-26T00:33:58.239Z,37.05
2022-12-26T00:37:07.462Z,35.72
2022-12-26T00:40:16.997Z,35.93
2022-12-26T00:43:27.625Z,37.83
2022-12-26T00:46:37.155Z,22.73
2022-12-26T00:50:13.156Z,41.03
2022-12-26T00:53:15.721Z,38.25
2022-12-26T00:56:25.040Z,23.45
2022-12-26T00:59:35.751Z,39.42
2022-12-26T01:02:45.077Z,39.97
2022-12-26T01:05:54.304Z,31.70
2022-12-26T01:09:03.829Z,41.25
2022-12-26T01:12:13.075Z,23.35
2022-12-26T01:15:24.129Z,41.50
2022-12-26T01:18:33.792Z,37.35
2022-12-26T01:21:43.481Z,38.63
2022-12-26T01:24:55.358Z,40.38
2022-12-26T01:28:04.707Z,23.90
2022-12-26T01:31:15.341Z,39.15
2022-12-26T01:34:24.698Z,21.65
2022-12-26T01:37:34.051Z,31.58
2022-12-26T01:40:44.532Z,27.67
2022-12-26T01:47:05.605Z,30.65
2022-12-26T01:50:34.066Z,28.70
2022-12-26T01:53:46.874Z,34.65
2022-12-26T01:56:56.418Z,33.13
2022-12-26T02:00:07.774Z,28.03
2022-12-26T02:03:41.253Z,39.78
2022-12-26T02:06:51.072Z,42.60
2022-12-26T02:10:00.402Z,39.05
2022-12-26T02:13:09.703Z,38.00
2022-12-26T02:16:20.831Z,27.60
2022-12-26T02:19:41.123Z,35.75
2022-12-26T02:23:20.587Z,35.97
2022-12-26T02:26:56.521Z,22.95
2022-12-26T02:30:08.959Z,25.60
2022-12-26T02:33:28.871Z,38.33
2022-12-26T02:36:58.662Z,19.45
2022-12-26T02:40:29.163Z,27.38
2022-12-26T02:47:05.988Z,26.65
2022-12-26T02:50:40.310Z,31.38
2022-12-26T02:54:13.172Z,36.55
2022-12-26T02:57:42.164Z,33.63
2022-12-26T03:01:10.871Z,41.03
2022-12-26T03:04:40.401Z,46.35
2022-12-26T03:08:07.624Z,45.67
2022-12-26T03:11:34.508Z,43.80
2022-12-26T03:14:47.538Z,31.85
2022-12-26T03:17:58.464Z,48.10
2022-12-26T03:21:10.987Z,34.65
2022-12-26T03:24:22.914Z,47.27
2022-12-26T03:27:31.383Z,49.80
2022-12-26T03:30:52.832Z,39.28
2022-12-26T03:34:19.538Z,37.67
2022-12-26T03:37:49.650Z,41.63
2022-12-26T03:41:22.005Z,37.53
2022-12-26T03:44:54.222Z,36.42
2022-12-26T03:48:25.523Z,40.30
2022-12-26T03:51:54.549Z,37.92
2022-12-26T03:55:24.772Z,32.28
2022-12-26T03:58:57.481Z,20.30
2022-12-26T04:02:21.935Z,31.40
2022-12-26T04:05:48.816Z,31.38
2022-12-26T04:09:19.389Z,26.42
2022-12-26T04:16:17.609Z,24.52
2022-12-26T04:19:43.354Z,25.38
2022-12-26T04:23:13.062Z,28.73
2022-12-26T04:26:42.479Z,28.27
2022-12-26T04:30:08.990Z,28.35
2022-12-26T04:33:39.379Z,22.88
2022-12-26T04:37:09.412Z,26.63
2022-12-26T04:40:39.100Z,21.67
2022-12-26T04:44:05.686Z,25.50
2022-12-26T04:47:14.897Z,26.88
2022-12-26T04:50:24.515Z,25.08
2022-12-26T04:53:33.687Z,24.70
2022-12-26T04:56:43.612Z,21.42
2022-12-26T04:59:55.343Z,24.38
2022-12-26T05:03:22.511Z,19.27
2022-12-26T05:06:50.466Z,27.10
2022-12-26T05:09:59.895Z,20.60
2022-12-26T05:13:09.165Z,22.42
2022-12-26T05:16:35.698Z,16.70
2022-12-26T05:20:02.923Z,25.17
2022-12-26T05:23:35.763Z,19.55
2022-12-26T05:27:02.757Z,23.27
2022-12-26T05:30:12.943Z,19.92
2022-12-26T05:33:39.307Z,23.15
2022-12-26T05:36:52.909Z,18.10
2022-12-26T05:40:03.563Z,11.82
2022-12-26T05:43:12.808Z,21.65
2022-12-26T05:46:22.250Z,18.40
2022-12-26T05:49:31.579Z,13.02
2022-12-26T05:52:40.767Z,14.80
2022-12-26T05:55:51.537Z,21.35
2022-12-26T05:59:02.484Z,10.75
2022-12-26T06:02:11.832Z,16.20
2022-12-26T06:05:21.170Z,11.73
2022-12-26T06:08:30.973Z,15.55
2022-12-26T06:11:46.914Z,10.35
2022-12-26T06:14:58.059Z,19.40
2022-12-26T06:18:09.023Z,11.23
2022-12-26T06:21:20.265Z,16.23
2022-12-26T06:24:29.472Z,15.25
2022-12-26T06:27:40.133Z,16.33
2022-12-26T06:30:49.319Z,12.70
2022-12-26T06:34:01.430Z,19.42
2022-12-26T06:37:10.647Z,14.27
2022-12-26T06:40:20.459Z,11.48
2022-12-26T06:43:31.118Z,11.30
2022-12-26T06:46:40.374Z,12.27
2022-12-26T06:49:49.679Z,16.25
2022-12-26T06:53:00.338Z,14.38
2022-12-26T06:56:11.056Z,13.30
2022-12-26T06:59:21.755Z,11.68
2022-12-26T07:02:31.157Z,13.18
2022-12-26T07:05:40.857Z,11.98
2022-12-26T07:08:50.379Z,16.33
2022-12-26T07:11:59.548Z,14.07
2022-12-26T07:15:11.876Z,19.45
2022-12-26T07:18:21.090Z,15.52
2022-12-26T07:21:36.324Z,19.77
2022-12-26T07:24:49.951Z,13.90
2022-12-26T07:28:00.587Z,16.15
2022-12-26T07:31:11.324Z,9.80
2022-12-26T07:34:20.544Z,12.23
2022-12-26T07:37:30.316Z,16.97
2022-12-26T07:40:39.557Z,17.00
2022-12-26T07:43:48.747Z,11.98
2022-12-26T07:47:00.090Z,16.23
2022-12-26T07:50:10.166Z,13.80
2022-12-26T07:53:19.395Z,9.75
2022-12-26T07:56:28.575Z,20.15
2022-12-26T07:59:37.846Z,11.68
2022-12-26T08:02:49.763Z,18.63
2022-12-26T08:05:59.333Z,9.35
2022-12-26T08:09:08.599Z,13.23
2022-12-26T08:12:21.427Z,12.25
2022-12-26T08:15:31.132Z,8.63
2022-12-26T08:18:42.006Z,15.82
2022-12-26T08:21:51.542Z,13.10
2022-12-26T08:25:01.268Z,20.73
2022-12-26T08:28:10.556Z,19.20
2022-12-26T08:31:20.659Z,19.00
2022-12-26T08:34:35.010Z,21.48
2022-12-26T08:37:44.238Z,18.98
2022-12-26T08:40:57.442Z,21.88
2022-12-26T08:47:36.516Z,9.73
2022-12-26T08:50:47.211Z,12.80
2022-12-26T08:53:57.085Z,19.55
2022-12-26T08:57:06.345Z,12.65
2022-12-26T09:00:16.791Z,15.95
2022-12-26T09:06:38.518Z,15.95
2022-12-26T09:09:47.870Z,20.23
2022-12-26T09:12:57.095Z,14.88
2022-12-26T09:16:11.566Z,10.88
2022-12-26T09:19:22.080Z,15.27
2022-12-26T09:26:06.495Z,9.93
2022-12-26T09:29:16.048Z,23.05
2022-12-26T09:32:25.309Z,16.77
2022-12-26T09:35:34.574Z,21.95
2022-12-26T09:38:45.990Z,23.48
2022-12-26T09:42:05.538Z,18.20
2022-12-26T09:45:16.404Z,23.58
2022-12-26T09:48:29.163Z,18.65
2022-12-26T09:51:39.728Z,20.15
2022-12-26T09:54:54.607Z,21.50
2022-12-26T09:58:08.062Z,22.70
2022-12-26T10:01:20.413Z,23.15
2022-12-26T10:04:31.226Z,23.17
2022-12-26T10:07:43.961Z,18.63
2022-12-26T10:11:01.189Z,11.45
2022-12-26T10:14:21.421Z,18.20
2022-12-26T10:17:36.293Z,14.57
2022-12-26T10:20:53.614Z,11.95
2022-12-26T10:24:09.141Z,19.50
2022-12-26T10:27:20.686Z,20.42
2022-12-26T10:30:34.292Z,17.23
2022-12-26T10:33:46.950Z,12.82
2022-12-26T10:37:01.122Z,18.67
2022-12-26T10:40:20.360Z,20.60
2022-12-26T10:43:33.753Z,18.55
2022-12-26T10:47:09.528Z,19.52
2022-12-26T10:50:25.557Z,13.90
2022-12-26T10:53:38.212Z,14.10
2022-12-26T10:56:49.571Z,21.08
2022-12-26T11:00:00.302Z,20.13
2022-12-26T11:03:12.587Z,15.10
2022-12-26T11:06:23.164Z,14.80
2022-12-26T11:12:50.372Z,13.43
2022-12-26T11:16:01.141Z,14.57
2022-12-26T11:19:27.967Z,17.05
2022-12-26T11:22:37.222Z,16.45
2022-12-26T11:25:50.977Z,17.42
2022-12-26T11:29:08.890Z,15.20
2022-12-26T11:32:21.582Z,16.05
2022-12-26T11:35:39.144Z,15.88
2022-12-26T11:38:55.022Z,13.65
2022-12-26T11:42:11.214Z,12.88
2022-12-26T11:45:24.187Z,14.15
2022-12-26T11:48:34.807Z,13.10
2022-12-26T11:51:47.736Z,10.30
2022-12-26T11:54:56.902Z,10.80
2022-12-26T11:58:20.795Z,10.90
2022-12-26T12:01:30.067Z,11.00
2022-12-26T12:04:40.787Z,10.30
2022-12-26T12:08:02.019Z,10.13
2022-12-26T12:11:23.657Z,11.07
2022-12-26T12:14:46.883Z,12.35
2022-12-26T12:18:04.456Z,11.75
2022-12-26T12:21:21.347Z,12.65
2022-12-26T12:24:44.067Z,12.82
2022-12-26T12:27:59.827Z,12.25
2022-12-26T12:31:14.672Z,11.52
2022-12-26T12:34:32.582Z,12.77
2022-12-26T12:37:56.424Z,13.77
2022-12-26T12:41:22.898Z,14.73
2022-12-26T12:44:44.171Z,13.48
2022-12-26T12:48:11.755Z,14.13
2022-12-26T12:51:27.089Z,12.85
2022-12-26T12:54:50.889Z,13.85
2022-12-26T12:58:04.993Z,14.05
2022-12-26T13:01:17.471Z,14.30
2022-12-26T13:04:30.452Z,13.18
2022-12-26T13:07:47.124Z,13.57
2022-12-26T13:11:03.300Z,14.30
2022-12-26T13:14:17.403Z,13.05
2022-12-26T13:17:31.094Z,12.63
2022-12-26T13:20:42.379Z,12.50
2022-12-26T13:24:13.508Z,12.38
2022-12-26T13:27:28.127Z,11.65
2022-12-26T13:30:38.115Z,12.18
2022-12-26T13:33:47.344Z,12.93
2022-12-26T13:36:57.666Z,13.07
2022-12-26T13:40:17.072Z,12.98
2022-12-26T13:43:44.998Z,10.38
2022-12-26T13:46:58.796Z,12.38
2022-12-26T13:50:56.898Z,13.13
2022-12-26T13:54:12.457Z,13.77
2022-12-26T13:57:37.348Z,13.55
2022-12-26T14:00:49.896Z,12.55
2022-12-26T14:04:13.128Z,13.02
2022-12-26T14:07:26.242Z,14.05
2022-12-26T14:10:43.439Z,13.75
2022-12-26T14:14:03.874Z,13.55
2022-12-26T14:16:45.852Z,13.90
2022-12-26T14:19:21.709Z,13.18
2022-12-26T14:21:57.359Z,13.45
2022-12-26T14:24:32.701Z,13.57
2022-12-26T14:27:26.097Z,12.75
2022-12-26T14:30:02.599Z,13.13
2022-12-26T14:32:40.654Z,12.32
2022-12-26T14:35:20.289Z,12.45
2022-12-26T14:37:56.031Z,13.05
2022-12-26T14:40:30.741Z,12.85
2022-12-26T14:43:14.609Z,13.00
2022-12-26T14:45:46.486Z,12.00
2022-12-26T14:48:52.230Z,13.05
2022-12-26T14:51:37.085Z,13.38
2022-12-26T14:54:22.229Z,13.48
2022-12-26T14:56:52.346Z,11.95
2022-12-26T14:59:30.561Z,11.48
2022-12-26T15:02:13.416Z,11.90
2022-12-26T15:05:01.793Z,11.00
2022-12-26T15:08:04.835Z,11.27
2022-12-26T15:11:10.413Z,11.88
2022-12-26T15:14:11.939Z,11.10
2022-12-26T15:16:49.061Z,12.05
2022-12-26T15:19:50.292Z,11.50
2022-12-26T15:22:44.529Z,11.25
2022-12-26T15:25:37.418Z,12.20
2022-12-26T15:28:35.446Z,13.00
2022-12-26T15:31:16.254Z,13.05
2022-12-26T15:33:49.933Z,14.63
2022-12-26T15:36:24.040Z,12.73
2022-12-26T15:38:58.859Z,13.70
2022-12-26T15:41:37.327Z,13.90
2022-12-26T15:44:15.563Z,14.20
2022-12-26T15:46:48.891Z,14.70
2022-12-26T15:49:42.854Z,15.88
2022-12-26T15:52:18.619Z,17.20
2022-12-26T15:55:32.442Z,16.25
2022-12-26T15:58:07.860Z,16.35
2022-12-26T16:00:38.552Z,15.18
2022-12-26T16:03:32.490Z,14.65
2022-12-26T16:06:11.068Z,15.77
2022-12-26T16:08:54.364Z,16.67
2022-12-26T16:11:25.518Z,15.10
2022-12-26T16:13:59.549Z,15.85
2022-12-26T16:16:34.933Z,14.23
2022-12-26T16:19:18.312Z,14.55
2022-12-26T16:22:06.587Z,10.73
2022-12-26T16:24:36.655Z,13.38
2022-12-26T16:27:07.460Z,13.52
2022-12-26T16:29:42.580Z,12.60
2022-12-26T16:32:17.453Z,13.40
2022-12-26T16:34:46.484Z,14.88
2022-12-26T16:37:20.051Z,13.73
2022-12-26T16:40:15.007Z,13.18
2022-12-26T16:42:45.677Z,13.90
2022-12-26T16:45:20.409Z,14.23
2022-12-26T16:47:49.930Z,12.63
2022-12-26T16:50:20.374Z,11.63
2022-12-26T16:52:48.998Z,11.50
2022-12-26T16:55:36.244Z,12.27
2022-12-26T16:58:14.396Z,12.00
2022-12-26T17:00:49.494Z,11.45
2022-12-26T17:03:30.254Z,12.15
2022-12-26T17:05:59.573Z,13.48
2022-12-26T17:08:28.596Z,12.25
2022-12-26T17:10:57.411Z,12.45
2022-12-26T17:13:27.790Z,13.43
2022-12-26T17:18:36.878Z,13.57
2022-12-26T17:21:32.961Z,15.88
2022-12-26T17:24:16.959Z,16.15
2022-12-26T17:26:52.465Z,17.77
2022-12-26T17:29:38.045Z,21.27
2022-12-26T17:32:14.727Z,20.45
2022-12-26T17:34:43.995Z,20.50
2022-12-26T17:37:23.298Z,21.05
2022-12-26T17:40:03.035Z,21.83
2022-12-26T17:42:41.662Z,22.52
2022-12-26T17:45:11.734Z,22.40
2022-12-26T17:47:42.240Z,21.65
2022-12-26T17:50:11.389Z,20.88
2022-12-26T17:52:40.607Z,21.30
2022-12-26T17:55:16.591Z,18.65
2022-12-26T17:57:45.647Z,19.92
2022-12-26T18:00:19.547Z,18.88
2022-12-26T18:02:50.740Z,18.17
2022-12-26T18:05:21.064Z,18.67
2022-12-26T18:07:51.440Z,20.13
2022-12-26T18:10:21.933Z,19.60
2022-12-26T18:12:51.382Z,18.75
2022-12-26T18:15:21.334Z,20.33
2022-12-26T18:17:52.707Z,21.90
2022-12-26T18:20:24.571Z,20.20
2022-12-26T18:22:53.495Z,19.20
2022-12-26T18:25:24.866Z,21.38
2022-12-26T18:27:54.223Z,23.67
2022-12-26T18:30:24.671Z,23.58
2022-12-26T18:35:24.147Z,22.55
2022-12-26T18:37:53.996Z,21.92
2022-12-26T18:40:30.024Z,21.00
2022-12-26T18:42:58.983Z,22.35
2022-12-26T18:45:28.190Z,20.35
2022-12-26T18:47:58.986Z,23.25
2022-12-26T18:50:28.681Z,21.60
2022-12-26T18:52:57.318Z,23.55
2022-12-26T18:55:27.121Z,24.85
2022-12-26T18:57:56.411Z,25.20
2022-12-26T19:00:26.106Z,24.90
2022-12-26T19:02:55.704Z,25.33
2022-12-26T19:05:27.743Z,23.20
2022-12-26T19:07:56.625Z,25.98
2022-12-26T19:10:27.535Z,23.65
2022-12-26T19:13:02.764Z,25.75
2022-12-26T19:15:34.758Z,26.17
2022-12-26T19:18:04.034Z,29.88
2022-12-26T19:20:39.020Z,28.25
2022-12-26T19:23:11.464Z,25.30
2022-12-26T19:25:40.146Z,24.83
2022-12-26T19:28:10.519Z,25.38
2022-12-26T19:30:39.474Z,24.33
2022-12-26T19:33:08.506Z,25.23
2022-12-26T19:35:38.976Z,26.35
2022-12-26T19:38:07.930Z,26.13
2022-12-26T19:40:36.496Z,25.63
2022-12-26T19:43:05.474Z,24.00
2022-12-26T19:45:34.471Z,22.52
2022-12-26T19:48:03.581Z,23.08
2022-12-26T19:50:33.614Z,21.00
2022-12-26T19:53:03.985Z,21.75
2022-12-26T19:55:32.569Z,21.80
2022-12-26T19:58:01.540Z,19.67
2022-12-26T20:00:30.686Z,18.60
2022-12-26T20:02:59.682Z,18.20
2022-12-26T20:05:28.720Z,16.60
2022-12-26T20:07:57.261Z,16.45
2022-12-26T20:10:27.687Z,14.88
2022-12-26T20:12:56.784Z,15.65
2022-12-26T20:15:25.743Z,16.33
2022-12-26T20:17:54.900Z,17.23
2022-12-26T20:20:23.824Z,16.77
2022-12-26T20:22:53.355Z,17.33
2022-12-26T20:25:22.420Z,15.95
2022-12-26T20:27:53.039Z,16.95
2022-12-26T20:30:22.079Z,15.65
2022-12-26T20:32:51.122Z,16.50
2022-12-26T20:35:20.106Z,15.50
2022-12-26T20:37:48.885Z,16.58
2022-12-26T20:40:18.095Z,16.40
2022-12-26T20:42:47.199Z,17.50
2022-12-26T20:45:17.699Z,18.98
2022-12-26T20:47:46.717Z,15.93
2022-12-26T20:50:17.592Z,16.65
2022-12-26T20:52:46.204Z,17.60
2022-12-26T20:55:16.547Z,16.88
2022-12-26T21:00:17.123Z,17.38
2022-12-26T21:02:46.350Z,17.00
2022-12-26T21:05:15.434Z,16.45
2022-12-26T21:07:44.119Z,16.15
2022-12-26T21:10:13.117Z,19.40
2022-12-26T21:12:42.246Z,19.02
2022-12-26T21:15:11.547Z,17.85
2022-12-26T21:17:41.948Z,17.20
2022-12-26T21:22:39.556Z,19.27
2022-12-26T21:25:09.363Z,19.20
2022-12-26T21:27:41.541Z,18.77
2022-12-26T21:30:12.846Z,17.42
2022-12-26T21:32:44.580Z,19.05
2022-12-26T21:37:51.609Z,19.33
2022-12-26T21:40:23.063Z,19.55
2022-12-26T21:42:52.037Z,21.58
2022-12-26T21:45:20.996Z,24.20
2022-12-26T21:47:51.328Z,24.50
2022-12-26T21:50:20.157Z,23.58
2022-12-26T21:52:48.827Z,23.95
2022-12-26T21:55:31.205Z,22.35
2022-12-26T21:58:02.581Z,24.73
2022-12-26T22:00:32.530Z,24.05
2022-12-26T22:03:20.577Z,24.92
2022-12-26T22:05:49.563Z,22.95
2022-12-26T22:08:18.543Z,24.52
2022-12-26T22:11:05.922Z,20.88
2022-12-26T22:13:41.450Z,22.55
2022-12-26T22:16:12.223Z,21.70
2022-12-26T22:18:45.012Z,21.92
2022-12-26T22:21:15.917Z,22.60
2022-12-26T22:23:45.687Z,21.58
2022-12-26T22:26:16.270Z,23.08
2022-12-26T22:28:45.214Z,23.90
2022-12-26T22:31:19.773Z,21.27
2022-12-26T22:33:54.782Z,21.98
2022-12-26T22:36:23.870Z,20.17
2022-12-26T22:38:52.807Z,18.42
2022-12-26T22:41:21.832Z,18.90
2022-12-26T22:43:50.390Z,17.42
2022-12-26T22:46:19.842Z,18.48
2022-12-26T22:48:50.297Z,17.35
2022-12-26T22:51:21.073Z,19.25
2022-12-26T22:53:50.475Z,18.38
2022-12-26T22:56:19.451Z,20.45
2022-12-26T22:58:48.052Z,21.80
2022-12-26T23:01:18.980Z,20.85
2022-12-26T23:03:49.541Z,20.88
2022-12-26T23:06:21.489Z,20.17
2022-12-26T23:08:53.027Z,21.65
2022-12-26T23:11:22.838Z,20.08
2022-12-26T23:13:51.855Z,20.55
2022-12-26T23:16:25.985Z,20.30
2022-12-26T23:19:16.421Z,21.05
2022-12-26T23:21:48.754Z,21.17
2022-12-26T23:24:19.495Z,21.40
2022-12-26T23:26:50.413Z,19.92
2022-12-26T23:29:38.986Z,19.88
2022-12-26T23:32:08.212Z,21.27
2022-12-26T23:34:38.652Z,20.87
2022-12-26T23:37:07.725Z,19.58
2022-12-26T23:39:37.191Z,20.08
2022-12-26T23:42:06.330Z,19.87
2022-12-26T23:44:36.140Z,19.90
2022-12-26T23:47:05.221Z,19.38
2022-12-26T23:49:33.848Z,19.35
2022-12-26T23:52:04.279Z,20.95
2022-12-26T23:54:33.275Z,18.08
2022-12-26T23:57:02.252Z,18.95
2022-12-26T23:59:31.253Z,19.83
